sensor_id;sensor_type;location;lat;lon;timestamp;pressure;altitude;pressure_sealevel;temperature;humidity
36248;BME280;22287;50.824;5.644;2022-12-29T00:01:59;99518.41;;;10.66;83.25
36248;BME280;22287;50.824;5.644;2022-12-29T00:04:26;99521.81;;;10.68;83.89
36248;BME280;22287;50.824;5.644;2022-12-29T00:06:53;99529.31;;;10.56;84.11
36248;BME280;22287;50.824;5.644;2022-12-29T00:09:21;99511.25;;;10.82;82.46
36248;BME280;22287;50.824;5.644;2022-12-29T00:11:47;99522.78;;;10.67;83.21
36248;BME280;22287;50.824;5.644;2022-12-29T00:14:16;99503.97;;;10.83;82.31
36248;BME280;22287;50.824;5.644;2022-12-29T00:17:02;99505.13;;;10.80;82.36
36248;BME280;22287;50.824;5.644;2022-12-29T00:19:29;99498.47;;;10.67;82.64
36248;BME280;22287;50.824;5.644;2022-12-29T00:22:15;99500.41;;;10.74;82.49
36248;BME280;22287;50.824;5.644;2022-12-29T00:25:00;99500.59;;;10.81;82.82
36248;BME280;22287;50.824;5.644;2022-12-29T00:27:46;99504.69;;;10.93;82.17
36248;BME280;22287;50.824;5.644;2022-12-29T00:30:33;99501.22;;;10.75;83.30
36248;BME280;22287;50.824;5.644;2022-12-29T00:33:22;99503.91;;;10.75;83.28
36248;BME280;22287;50.824;5.644;2022-12-29T00:36:17;99497.91;;;10.89;82.50
36248;BME280;22287;50.824;5.644;2022-12-29T00:38:52;99499.16;;;11.02;81.38
36248;BME280;22287;50.824;5.644;2022-12-29T00:41:38;99483.72;;;10.87;82.00
36248;BME280;22287;50.824;5.644;2022-12-29T00:44:23;99492.69;;;10.53;82.75
36248;BME280;22287;50.824;5.644;2022-12-29T00:46:50;99503.38;;;10.63;83.04
36248;BME280;22287;50.824;5.644;2022-12-29T00:49:18;99494.78;;;10.68;82.60
36248;BME280;22287;50.824;5.644;2022-12-29T00:52:08;99499.72;;;10.80;82.04
36248;BME280;22287;50.824;5.644;2022-12-29T00:54:37;99502.94;;;10.76;82.10
36248;BME280;22287;50.824;5.644;2022-12-29T00:57:06;99500.28;;;10.92;81.53
36248;BME280;22287;50.824;5.644;2022-12-29T00:59:40;99487.44;;;10.94;80.31
36248;BME280;22287;50.824;5.644;2022-12-29T01:02:08;99482.69;;;10.80;81.24
36248;BME280;22287;50.824;5.644;2022-12-29T01:04:36;99487.34;;;10.70;81.42
36248;BME280;22287;50.824;5.644;2022-12-29T01:07:04;99488.75;;;10.74;81.87
36248;BME280;22287;50.824;5.644;2022-12-29T01:09:31;99494.88;;;10.58;81.80
36248;BME280;22287;50.824;5.644;2022-12-29T01:12:17;99489.25;;;10.77;81.26
36248;BME280;22287;50.824;5.644;2022-12-29T01:15:05;99488.41;;;10.77;80.59
36248;BME280;22287;50.824;5.644;2022-12-29T01:17:32;99479.13;;;10.79;80.50
36248;BME280;22287;50.824;5.644;2022-12-29T01:19:58;99482.53;;;10.55;81.51
36248;BME280;22287;50.824;5.644;2022-12-29T01:22:25;99472.53;;;10.74;80.85
36248;BME280;22287;50.824;5.644;2022-12-29T01:24:54;99484.25;;;10.56;81.61
36248;BME280;22287;50.824;5.644;2022-12-29T01:27:21;99480.38;;;10.59;80.83
36248;BME280;22287;50.824;5.644;2022-12-29T01:29:48;99474.72;;;10.78;80.47
36248;BME280;22287;50.824;5.644;2022-12-29T01:32:15;99477.91;;;10.66;80.51
36248;BME280;22287;50.824;5.644;2022-12-29T01:34:41;99468.16;;;10.81;79.88
36248;BME280;22287;50.824;5.644;2022-12-29T01:37:08;99476.22;;;10.73;79.48
36248;BME280;22287;50.824;5.644;2022-12-29T01:39:36;99485.16;;;10.65;80.55
36248;BME280;22287;50.824;5.644;2022-12-29T01:42:03;99478.72;;;11.08;77.88
36248;BME280;22287;50.824;5.644;2022-12-29T01:49:53;99479.63;;;10.83;79.52
36248;BME280;22287;50.824;5.644;2022-12-29T01:52:22;99474.88;;;10.69;79.98
36248;BME280;22287;50.824;5.644;2022-12-29T01:54:53;99473.38;;;10.74;79.68
36248;BME280;22287;50.824;5.644;2022-12-29T01:57:29;99480.22;;;10.60;81.32
36248;BME280;22287;50.824;5.644;2022-12-29T02:00:10;99481.53;;;10.82;79.46
36248;BME280;22287;50.824;5.644;2022-12-29T02:02:43;99484.09;;;11.00;78.95
36248;BME280;22287;50.824;5.644;2022-12-29T02:07:52;99479.75;;;10.65;80.26
36248;BME280;22287;50.824;5.644;2022-12-29T02:10:24;99476.47;;;10.53;81.08
36248;BME280;22287;50.824;5.644;2022-12-29T02:12:53;99464.81;;;10.87;80.51
36248;BME280;22287;50.824;5.644;2022-12-29T02:21:29;99445.94;;;10.61;81.83
36248;BME280;22287;50.824;5.644;2022-12-29T02:24:22;99450.88;;;10.66;81.41
36248;BME280;22287;50.824;5.644;2022-12-29T02:32:37;99441.03;;;10.56;82.56
36248;BME280;22287;50.824;5.644;2022-12-29T02:45:41;99431.25;;;10.63;81.68
36248;BME280;22287;50.824;5.644;2022-12-29T02:51:04;99419.81;;;10.70;82.37
36248;BME280;22287;50.824;5.644;2022-12-29T02:53:34;99407.69;;;10.82;81.22
36248;BME280;22287;50.824;5.644;2022-12-29T02:56:21;99398.91;;;10.80;81.70
36248;BME280;22287;50.824;5.644;2022-12-29T02:58:48;99382.63;;;10.63;82.02
36248;BME280;22287;50.824;5.644;2022-12-29T03:04:23;99396.97;;;11.14;79.90
36248;BME280;22287;50.824;5.644;2022-12-29T03:07:12;99389.81;;;10.89;80.17
36248;BME280;22287;50.824;5.644;2022-12-29T03:09:54;99383.41;;;10.90;80.74
36248;BME280;22287;50.824;5.644;2022-12-29T03:12:38;99387.94;;;10.89;80.96
36248;BME280;22287;50.824;5.644;2022-12-29T03:15:59;99392.69;;;10.87;80.88
36248;BME280;22287;50.824;5.644;2022-12-29T03:24:13;99360.22;;;10.71;80.92
36248;BME280;22287;50.824;5.644;2022-12-29T03:26:42;99359.88;;;10.74;80.97
36248;BME280;22287;50.824;5.644;2022-12-29T03:29:14;99360.56;;;10.84;80.51
36248;BME280;22287;50.824;5.644;2022-12-29T03:31:56;99378.28;;;10.71;80.31
36248;BME280;22287;50.824;5.644;2022-12-29T03:34:39;99388.16;;;10.46;81.75
36248;BME280;22287;50.824;5.644;2022-12-29T03:37:10;99388.63;;;10.49;81.62
36248;BME280;22287;50.824;5.644;2022-12-29T03:39:38;99399.84;;;10.54;81.07
36248;BME280;22287;50.824;5.644;2022-12-29T03:42:21;99379.59;;;10.67;80.20
36248;BME280;22287;50.824;5.644;2022-12-29T03:45:05;99378.53;;;10.51;80.89
36248;BME280;22287;50.824;5.644;2022-12-29T03:47:33;99381.25;;;10.51;81.36
36248;BME280;22287;50.824;5.644;2022-12-29T03:50:00;99385.34;;;10.72;80.38
36248;BME280;22287;50.824;5.644;2022-12-29T03:52:28;99369.84;;;10.74;79.84
36248;BME280;22287;50.824;5.644;2022-12-29T03:54:55;99368.44;;;10.61;80.84
36248;BME280;22287;50.824;5.644;2022-12-29T03:57:21;99367.53;;;10.95;78.32
36248;BME280;22287;50.824;5.644;2022-12-29T04:00:01;99374.91;;;10.69;80.24
36248;BME280;22287;50.824;5.644;2022-12-29T04:02:29;99383.00;;;10.69;80.16
36248;BME280;22287;50.824;5.644;2022-12-29T04:04:56;99384.34;;;10.73;79.72
36248;BME280;22287;50.824;5.644;2022-12-29T04:07:23;99386.66;;;10.51;80.63
36248;BME280;22287;50.824;5.644;2022-12-29T04:09:52;99389.19;;;10.53;80.77
36248;BME280;22287;50.824;5.644;2022-12-29T04:12:22;99398.47;;;10.58;80.22
36248;BME280;22287;50.824;5.644;2022-12-29T04:14:49;99377.47;;;10.94;78.03
36248;BME280;22287;50.824;5.644;2022-12-29T04:17:17;99383.06;;;10.85;78.88
36248;BME280;22287;50.824;5.644;2022-12-29T04:19:45;99399.44;;;10.91;77.98
36248;BME280;22287;50.824;5.644;2022-12-29T04:22:12;99404.56;;;10.60;79.43
36248;BME280;22287;50.824;5.644;2022-12-29T04:24:39;99398.56;;;10.83;78.34
36248;BME280;22287;50.824;5.644;2022-12-29T04:27:09;99398.16;;;10.61;79.01
36248;BME280;22287;50.824;5.644;2022-12-29T04:29:54;99391.13;;;10.69;79.48
36248;BME280;22287;50.824;5.644;2022-12-29T04:32:44;99394.53;;;10.87;78.90
36248;BME280;22287;50.824;5.644;2022-12-29T04:35:11;99405.59;;;10.59;80.14
36248;BME280;22287;50.824;5.644;2022-12-29T04:37:38;99402.56;;;10.63;79.79
36248;BME280;22287;50.824;5.644;2022-12-29T04:40:06;99398.38;;;10.68;79.16
36248;BME280;22287;50.824;5.644;2022-12-29T04:42:33;99397.63;;;10.58;79.66
36248;BME280;22287;50.824;5.644;2022-12-29T04:45:02;99406.22;;;10.53;80.24
36248;BME280;22287;50.824;5.644;2022-12-29T04:48:06;99412.31;;;10.55;80.40
36248;BME280;22287;50.824;5.644;2022-12-29T04:50:43;99424.53;;;10.68;79.65
36248;BME280;22287;50.824;5.644;2022-12-29T04:53:16;99412.00;;;10.58;80.07
36248;BME280;22287;50.824;5.644;2022-12-29T04:55:47;99415.34;;;10.52;79.41
36248;BME280;22287;50.824;5.644;2022-12-29T04:58:28;99418.22;;;10.51;79.54
36248;BME280;22287;50.824;5.644;2022-12-29T05:00:54;99420.66;;;10.36;80.07
36248;BME280;22287;50.824;5.644;2022-12-29T05:03:34;99429.56;;;10.29;80.32
36248;BME280;22287;50.824;5.644;2022-12-29T05:06:01;99432.06;;;10.56;78.82
36248;BME280;22287;50.824;5.644;2022-12-29T05:08:28;99430.19;;;10.48;79.09
36248;BME280;22287;50.824;5.644;2022-12-29T05:10:58;99450.31;;;10.28;79.73
36248;BME280;22287;50.824;5.644;2022-12-29T05:13:25;99432.84;;;10.40;78.82
36248;BME280;22287;50.824;5.644;2022-12-29T05:15:53;99430.19;;;10.48;78.85
36248;BME280;22287;50.824;5.644;2022-12-29T05:18:22;99437.63;;;10.46;78.71
36248;BME280;22287;50.824;5.644;2022-12-29T05:20:49;99420.19;;;10.41;79.03
36248;BME280;22287;50.824;5.644;2022-12-29T05:23:18;99434.53;;;10.41;78.67
36248;BME280;22287;50.824;5.644;2022-12-29T05:25:50;99445.03;;;10.86;75.88
36248;BME280;22287;50.824;5.644;2022-12-29T05:28:21;99455.16;;;10.50;77.96
36248;BME280;22287;50.824;5.644;2022-12-29T05:30:54;99449.63;;;10.26;78.45
36248;BME280;22287;50.824;5.644;2022-12-29T05:33:21;99445.22;;;10.51;77.04
36248;BME280;22287;50.824;5.644;2022-12-29T05:35:49;99445.41;;;10.24;78.32
36248;BME280;22287;50.824;5.644;2022-12-29T05:38:30;99444.03;;;10.20;78.28
36248;BME280;22287;50.824;5.644;2022-12-29T05:41:00;99452.34;;;10.26;77.97
36248;BME280;22287;50.824;5.644;2022-12-29T05:43:46;99438.22;;;10.32;78.21
36248;BME280;22287;50.824;5.644;2022-12-29T05:46:28;99446.06;;;10.51;76.74
36248;BME280;22287;50.824;5.644;2022-12-29T05:49:17;99447.25;;;10.05;78.79
36248;BME280;22287;50.824;5.644;2022-12-29T05:52:10;99453.78;;;10.13;78.32
36248;BME280;22287;50.824;5.644;2022-12-29T05:54:52;99461.81;;;10.30;77.32
36248;BME280;22287;50.824;5.644;2022-12-29T05:57:21;99458.09;;;10.57;76.51
36248;BME280;22287;50.824;5.644;2022-12-29T05:59:56;99461.81;;;10.30;77.62
36248;BME280;22287;50.824;5.644;2022-12-29T06:02:23;99474.25;;;10.23;78.04
36248;BME280;22287;50.824;5.644;2022-12-29T06:04:50;99469.81;;;10.40;77.29
36248;BME280;22287;50.824;5.644;2022-12-29T06:07:17;99471.34;;;10.17;78.12
36248;BME280;22287;50.824;5.644;2022-12-29T06:09:46;99472.59;;;10.30;77.27
36248;BME280;22287;50.824;5.644;2022-12-29T06:12:30;99478.50;;;10.26;78.00
36248;BME280;22287;50.824;5.644;2022-12-29T06:15:11;99482.53;;;10.55;76.72
36248;BME280;22287;50.824;5.644;2022-12-29T06:17:53;99479.97;;;10.20;78.63
36248;BME280;22287;50.824;5.644;2022-12-29T06:20:21;99483.03;;;10.25;78.63
36248;BME280;22287;50.824;5.644;2022-12-29T06:23:04;99491.19;;;10.33;78.06
36248;BME280;22287;50.824;5.644;2022-12-29T06:25:31;99491.50;;;10.30;78.51
36248;BME280;22287;50.824;5.644;2022-12-29T06:27:59;99494.59;;;10.35;77.95
36248;BME280;22287;50.824;5.644;2022-12-29T06:30:26;99488.22;;;10.44;76.68
36248;BME280;22287;50.824;5.644;2022-12-29T06:32:53;99501.38;;;10.39;77.54
36248;BME280;22287;50.824;5.644;2022-12-29T06:35:23;99503.75;;;9.99;78.69
36248;BME280;22287;50.824;5.644;2022-12-29T06:37:51;99509.53;;;9.86;79.65
36248;BME280;22287;50.824;5.644;2022-12-29T06:40:18;99507.59;;;9.96;79.02
36248;BME280;22287;50.824;5.644;2022-12-29T06:43:02;99518.53;;;9.95;79.03
36248;BME280;22287;50.824;5.644;2022-12-29T06:45:48;99520.63;;;9.83;79.20
36248;BME280;22287;50.824;5.644;2022-12-29T06:48:15;99522.63;;;9.81;78.74
36248;BME280;22287;50.824;5.644;2022-12-29T06:50:42;99526.31;;;9.80;79.23
36248;BME280;22287;50.824;5.644;2022-12-29T06:53:09;99530.19;;;9.78;79.49
36248;BME280;22287;50.824;5.644;2022-12-29T06:55:36;99527.56;;;9.86;79.19
36248;BME280;22287;50.824;5.644;2022-12-29T06:58:03;99533.28;;;9.83;78.56
36248;BME280;22287;50.824;5.644;2022-12-29T07:00:30;99531.72;;;9.80;78.24
36248;BME280;22287;50.824;5.644;2022-12-29T07:02:57;99528.97;;;9.90;78.50
36248;BME280;22287;50.824;5.644;2022-12-29T07:05:27;99532.97;;;9.86;78.05
36248;BME280;22287;50.824;5.644;2022-12-29T07:07:55;99532.88;;;9.78;78.29
36248;BME280;22287;50.824;5.644;2022-12-29T07:10:22;99522.03;;;9.87;77.37
36248;BME280;22287;50.824;5.644;2022-12-29T07:12:49;99537.91;;;9.73;78.58
36248;BME280;22287;50.824;5.644;2022-12-29T07:15:16;99540.75;;;9.89;77.55
36248;BME280;22287;50.824;5.644;2022-12-29T07:17:43;99548.25;;;9.77;78.30
36248;BME280;22287;50.824;5.644;2022-12-29T07:20:10;99545.31;;;9.71;78.35
36248;BME280;22287;50.824;5.644;2022-12-29T07:22:37;99547.78;;;9.82;77.54
36248;BME280;22287;50.824;5.644;2022-12-29T07:25:05;99550.94;;;9.95;77.23
36248;BME280;22287;50.824;5.644;2022-12-29T07:27:31;99561.13;;;9.66;78.85
36248;BME280;22287;50.824;5.644;2022-12-29T07:29:58;99572.97;;;9.73;78.55
36248;BME280;22287;50.824;5.644;2022-12-29T07:32:25;99561.38;;;9.45;80.87
36248;BME280;22287;50.824;5.644;2022-12-29T07:34:52;99559.97;;;9.68;80.57
36248;BME280;22287;50.824;5.644;2022-12-29T07:37:19;99570.78;;;9.59;80.74
36248;BME280;22287;50.824;5.644;2022-12-29T07:39:46;99579.22;;;9.73;79.51
36248;BME280;22287;50.824;5.644;2022-12-29T07:42:13;99573.84;;;10.26;76.76
36248;BME280;22287;50.824;5.644;2022-12-29T07:44:42;99573.16;;;10.24;76.21
36248;BME280;22287;50.824;5.644;2022-12-29T07:47:17;99578.56;;;10.24;75.56
36248;BME280;22287;50.824;5.644;2022-12-29T07:49:44;99584.88;;;10.58;74.18
36248;BME280;22287;50.824;5.644;2022-12-29T07:52:11;99583.97;;;10.24;74.53
36248;BME280;22287;50.824;5.644;2022-12-29T07:54:37;99582.50;;;10.30;73.50
36248;BME280;22287;50.824;5.644;2022-12-29T07:57:06;99587.66;;;10.23;73.65
36248;BME280;22287;50.824;5.644;2022-12-29T07:59:33;99584.94;;;10.41;73.24
36248;BME280;22287;50.824;5.644;2022-12-29T08:02:00;99600.59;;;10.37;73.03
36248;BME280;22287;50.824;5.644;2022-12-29T08:04:26;99595.19;;;10.37;73.03
36248;BME280;22287;50.824;5.644;2022-12-29T08:06:53;99613.56;;;10.51;73.12
36248;BME280;22287;50.824;5.644;2022-12-29T08:09:20;99611.78;;;10.42;72.79
36248;BME280;22287;50.824;5.644;2022-12-29T08:11:48;99621.28;;;10.46;73.35
36248;BME280;22287;50.824;5.644;2022-12-29T08:14:15;99615.28;;;10.17;73.57
36248;BME280;22287;50.824;5.644;2022-12-29T08:16:42;99614.47;;;10.07;74.24
36248;BME280;22287;50.824;5.644;2022-12-29T08:19:10;99615.78;;;10.03;74.63
36248;BME280;22287;50.824;5.644;2022-12-29T08:21:38;99625.81;;;10.11;74.95
36248;BME280;22287;50.824;5.644;2022-12-29T08:24:06;99629.25;;;10.13;75.27
36248;BME280;22287;50.824;5.644;2022-12-29T08:26:33;99640.44;;;10.18;74.63
36248;BME280;22287;50.824;5.644;2022-12-29T08:29:00;99640.25;;;10.37;72.90
36248;BME280;22287;50.824;5.644;2022-12-29T08:31:26;99642.84;;;10.11;73.19
36248;BME280;22287;50.824;5.644;2022-12-29T08:33:53;99635.66;;;10.29;72.50
36248;BME280;22287;50.824;5.644;2022-12-29T08:36:20;99626.19;;;9.98;73.32
36248;BME280;22287;50.824;5.644;2022-12-29T08:38:47;99639.34;;;10.28;71.70
36248;BME280;22287;50.824;5.644;2022-12-29T08:41:14;99643.44;;;10.32;71.72
36248;BME280;22287;50.824;5.644;2022-12-29T08:43:41;99659.72;;;10.40;71.28
36248;BME280;22287;50.824;5.644;2022-12-29T08:46:07;99656.16;;;10.22;71.79
36248;BME280;22287;50.824;5.644;2022-12-29T08:48:34;99648.59;;;10.26;70.67
36248;BME280;22287;50.824;5.644;2022-12-29T08:51:01;99655.72;;;10.70;69.82
36248;BME280;22287;50.824;5.644;2022-12-29T08:53:28;99648.38;;;10.37;70.77
36248;BME280;22287;50.824;5.644;2022-12-29T08:55:59;99648.59;;;10.43;69.99
36248;BME280;22287;50.824;5.644;2022-12-29T08:58:37;99659.53;;;10.42;70.65
36248;BME280;22287;50.824;5.644;2022-12-29T09:01:06;99655.22;;;10.31;70.71
36248;BME280;22287;50.824;5.644;2022-12-29T09:03:33;99657.56;;;10.26;70.31
36248;BME280;22287;50.824;5.644;2022-12-29T09:06:20;99663.56;;;10.20;70.77
36248;BME280;22287;50.824;5.644;2022-12-29T09:08:48;99659.88;;;10.21;70.24
36248;BME280;22287;50.824;5.644;2022-12-29T09:11:23;99668.41;;;10.17;70.15
36248;BME280;22287;50.824;5.644;2022-12-29T09:13:51;99655.41;;;10.30;70.39
36248;BME280;22287;50.824;5.644;2022-12-29T09:16:18;99659.47;;;10.34;70.53
36248;BME280;22287;50.824;5.644;2022-12-29T09:18:46;99667.09;;;10.38;69.64
36248;BME280;22287;50.824;5.644;2022-12-29T09:21:13;99679.91;;;10.36;70.10
36248;BME280;22287;50.824;5.644;2022-12-29T09:23:40;99676.84;;;10.31;69.81
36248;BME280;22287;50.824;5.644;2022-12-29T09:26:07;99687.34;;;10.34;69.96
36248;BME280;22287;50.824;5.644;2022-12-29T09:28:35;99694.44;;;10.35;70.14
36248;BME280;22287;50.824;5.644;2022-12-29T09:31:02;99691.03;;;10.33;69.37
36248;BME280;22287;50.824;5.644;2022-12-29T09:33:29;99685.25;;;10.28;70.80
36248;BME280;22287;50.824;5.644;2022-12-29T09:35:57;99696.13;;;10.36;70.12
36248;BME280;22287;50.824;5.644;2022-12-29T09:38:26;99694.03;;;10.13;70.28
36248;BME280;22287;50.824;5.644;2022-12-29T09:40:56;99667.75;;;10.32;70.44
36248;BME280;22287;50.824;5.644;2022-12-29T09:48:31;99689.19;;;10.16;70.22
36248;BME280;22287;50.824;5.644;2022-12-29T09:51:02;99691.28;;;9.95;69.54
36248;BME280;22287;50.824;5.644;2022-12-29T09:53:57;99696.56;;;9.87;70.17
36248;BME280;22287;50.824;5.644;2022-12-29T09:56:26;99723.84;;;9.84;70.64
36248;BME280;22287;50.824;5.644;2022-12-29T10:01:44;99718.81;;;10.43;68.24
36248;BME280;22287;50.824;5.644;2022-12-29T10:04:13;99719.28;;;10.56;68.14
36248;BME280;22287;50.824;5.644;2022-12-29T10:10:01;99733.16;;;10.26;69.23
36248;BME280;22287;50.824;5.644;2022-12-29T10:16:11;99740.88;;;10.39;68.39
36248;BME280;22287;50.824;5.644;2022-12-29T10:24:14;99743.53;;;10.48;69.03
36248;BME280;22287;50.824;5.644;2022-12-29T10:26:43;99741.72;;;10.39;67.88
36248;BME280;22287;50.824;5.644;2022-12-29T10:29:15;99749.22;;;10.45;68.85
36248;BME280;22287;50.824;5.644;2022-12-29T10:31:58;99737.78;;;10.16;68.90
36248;BME280;22287;50.824;5.644;2022-12-29T10:34:37;99743.97;;;10.44;68.31
36248;BME280;22287;50.824;5.644;2022-12-29T10:39:53;99752.78;;;10.63;68.05
36248;BME280;22287;50.824;5.644;2022-12-29T10:42:33;99754.19;;;10.85;67.29
36248;BME280;22287;50.824;5.644;2022-12-29T10:45:04;99756.16;;;10.48;68.06
36248;BME280;22287;50.824;5.644;2022-12-29T10:47:40;99762.59;;;10.65;68.01
36248;BME280;22287;50.824;5.644;2022-12-29T10:50:12;99763.59;;;10.46;68.08
36248;BME280;22287;50.824;5.644;2022-12-29T10:52:39;99761.25;;;10.33;68.85
36248;BME280;22287;50.824;5.644;2022-12-29T10:55:15;99772.22;;;10.49;68.64
36248;BME280;22287;50.824;5.644;2022-12-29T10:57:44;99777.88;;;10.56;68.48
36248;BME280;22287;50.824;5.644;2022-12-29T11:00:20;99776.72;;;10.41;68.91
36248;BME280;22287;50.824;5.644;2022-12-29T11:06:05;99780.72;;;10.54;68.06
36248;BME280;22287;50.824;5.644;2022-12-29T11:08:37;99780.53;;;10.38;67.95
36248;BME280;22287;50.824;5.644;2022-12-29T11:11:09;99773.91;;;10.50;67.94
36248;BME280;22287;50.824;5.644;2022-12-29T11:13:57;99783.75;;;10.87;66.93
36248;BME280;22287;50.824;5.644;2022-12-29T11:16:31;99784.44;;;10.89;67.27
36248;BME280;22287;50.824;5.644;2022-12-29T11:19:00;99783.75;;;11.04;66.65
36248;BME280;22287;50.824;5.644;2022-12-29T11:21:31;99792.06;;;11.11;65.13
36248;BME280;22287;50.824;5.644;2022-12-29T11:24:03;99797.47;;;11.11;66.11
36248;BME280;22287;50.824;5.644;2022-12-29T11:26:32;99801.09;;;11.19;65.63
36248;BME280;22287;50.824;5.644;2022-12-29T11:29:23;99801.06;;;11.37;65.89
36248;BME280;22287;50.824;5.644;2022-12-29T11:31:53;99808.97;;;11.13;66.51
36248;BME280;22287;50.824;5.644;2022-12-29T11:34:41;99811.16;;;10.92;67.13
36248;BME280;22287;50.824;5.644;2022-12-29T11:37:14;99813.63;;;11.03;66.64
36248;BME280;22287;50.824;5.644;2022-12-29T11:45:05;99822.13;;;10.90;66.67
36248;BME280;22287;50.824;5.644;2022-12-29T11:47:36;99820.03;;;10.84;66.57
36248;BME280;22287;50.824;5.644;2022-12-29T11:50:06;99831.47;;;10.96;66.01
36248;BME280;22287;50.824;5.644;2022-12-29T11:52:36;99835.41;;;10.84;67.55
36248;BME280;22287;50.824;5.644;2022-12-29T11:55:17;99822.13;;;10.73;66.78
36248;BME280;22287;50.824;5.644;2022-12-29T11:57:45;99824.03;;;10.80;66.30
36248;BME280;22287;50.824;5.644;2022-12-29T12:00:18;99831.84;;;10.66;67.71
36248;BME280;22287;50.824;5.644;2022-12-29T12:05:47;99835.84;;;10.97;66.72
36248;BME280;22287;50.824;5.644;2022-12-29T12:08:31;99842.13;;;10.80;67.40
36248;BME280;22287;50.824;5.644;2022-12-29T12:11:31;99841.88;;;10.73;67.82
36248;BME280;22287;50.824;5.644;2022-12-29T12:14:13;99844.72;;;10.54;67.53
36248;BME280;22287;50.824;5.644;2022-12-29T12:17:24;99841.81;;;10.83;66.80
36248;BME280;22287;50.824;5.644;2022-12-29T12:20:27;99839.66;;;10.86;66.93
36248;BME280;22287;50.824;5.644;2022-12-29T12:26:02;99849.34;;;10.61;67.95
36248;BME280;22287;50.824;5.644;2022-12-29T12:34:54;99847.00;;;11.11;66.89
36248;BME280;22287;50.824;5.644;2022-12-29T12:37:42;99847.75;;;10.86;66.94
36248;BME280;22287;50.824;5.644;2022-12-29T12:43:37;99844.72;;;10.54;67.36
36248;BME280;22287;50.824;5.644;2022-12-29T12:49:21;99845.88;;;10.51;68.31
36248;BME280;22287;50.824;5.644;2022-12-29T12:55:33;99839.72;;;10.94;66.79
36248;BME280;22287;50.824;5.644;2022-12-29T13:04:19;99849.38;;;10.97;67.59
36248;BME280;22287;50.824;5.644;2022-12-29T13:10:16;99859.59;;;10.58;69.29
36248;BME280;22287;50.824;5.644;2022-12-29T13:23:57;99852.09;;;10.79;67.59
36248;BME280;22287;50.824;5.644;2022-12-29T13:26:48;99858.25;;;10.44;68.15
36248;BME280;22287;50.824;5.644;2022-12-29T13:37:29;99859.31;;;10.34;67.35
36248;BME280;22287;50.824;5.644;2022-12-29T13:40:02;99857.56;;;10.42;67.40
36248;BME280;22287;50.824;5.644;2022-12-29T13:42:30;99859.56;;;10.68;66.98
36248;BME280;22287;50.824;5.644;2022-12-29T13:45:02;99858.81;;;10.93;66.57
36248;BME280;22287;50.824;5.644;2022-12-29T13:47:38;99869.03;;;10.72;67.23
36248;BME280;22287;50.824;5.644;2022-12-29T13:50:18;99868.34;;;10.70;67.31
36248;BME280;22287;50.824;5.644;2022-12-29T13:55:36;99867.38;;;10.43;67.56
36248;BME280;22287;50.824;5.644;2022-12-29T13:58:12;99879.69;;;10.28;68.09
36248;BME280;22287;50.824;5.644;2022-12-29T14:00:51;99887.03;;;10.36;67.47
36248;BME280;22287;50.824;5.644;2022-12-29T14:06:23;99889.59;;;10.37;67.29
36248;BME280;22287;50.824;5.644;2022-12-29T14:09:34;99886.13;;;10.45;66.43
36248;BME280;22287;50.824;5.644;2022-12-29T14:12:19;99887.53;;;10.76;65.86
36248;BME280;22287;50.824;5.644;2022-12-29T14:14:47;99892.19;;;10.56;66.15
36248;BME280;22287;50.824;5.644;2022-12-29T14:17:20;99892.22;;;10.47;66.86
36248;BME280;22287;50.824;5.644;2022-12-29T14:19:51;99885.63;;;11.04;65.59
36248;BME280;22287;50.824;5.644;2022-12-29T14:22:23;99882.53;;;10.54;67.19
36248;BME280;22287;50.824;5.644;2022-12-29T14:24:57;99890.19;;;10.58;66.05
36248;BME280;22287;50.824;5.644;2022-12-29T14:29:54;99897.09;;;10.43;65.93
36248;BME280;22287;50.824;5.644;2022-12-29T14:42:41;99903.13;;;10.28;66.10
36248;BME280;22287;50.824;5.644;2022-12-29T14:47:51;99892.38;;;10.45;65.73
36248;BME280;22287;50.824;5.644;2022-12-29T14:50:38;99899.59;;;10.08;66.21
36248;BME280;22287;50.824;5.644;2022-12-29T14:53:06;99891.63;;;10.26;65.97
36248;BME280;22287;50.824;5.644;2022-12-29T14:55:55;99900.19;;;10.21;65.51
36248;BME280;22287;50.824;5.644;2022-12-29T14:58:28;99893.63;;;9.68;67.22
36248;BME280;22287;50.824;5.644;2022-12-29T15:00:58;99895.22;;;10.07;66.03
36248;BME280;22287;50.824;5.644;2022-12-29T15:03:32;99900.50;;;9.99;65.10
36248;BME280;22287;50.824;5.644;2022-12-29T15:06:09;99908.56;;;10.18;65.00
36248;BME280;22287;50.824;5.644;2022-12-29T15:08:49;99922.06;;;10.09;66.11
36248;BME280;22287;50.824;5.644;2022-12-29T15:11:20;99914.63;;;9.74;66.67
36248;BME280;22287;50.824;5.644;2022-12-29T15:13:49;99916.59;;;9.91;66.39
36248;BME280;22287;50.824;5.644;2022-12-29T15:16:33;99921.69;;;9.94;65.75
36248;BME280;22287;50.824;5.644;2022-12-29T15:19:03;99927.81;;;9.86;66.61
36248;BME280;22287;50.824;5.644;2022-12-29T15:21:34;99929.78;;;9.94;66.19
36248;BME280;22287;50.824;5.644;2022-12-29T15:24:02;99926.53;;;9.81;66.10
36248;BME280;22287;50.824;5.644;2022-12-29T15:26:38;99933.34;;;9.85;66.20
36248;BME280;22287;50.824;5.644;2022-12-29T15:29:44;99940.72;;;9.92;66.60
36248;BME280;22287;50.824;5.644;2022-12-29T15:32:21;99932.97;;;9.61;67.20
36248;BME280;22287;50.824;5.644;2022-12-29T15:34:51;99933.56;;;9.35;68.51
36248;BME280;22287;50.824;5.644;2022-12-29T15:37:37;99942.59;;;9.73;67.61
36248;BME280;22287;50.824;5.644;2022-12-29T15:40:04;99937.34;;;9.62;67.80
36248;BME280;22287;50.824;5.644;2022-12-29T15:45:34;99942.75;;;9.42;68.73
36248;BME280;22287;50.824;5.644;2022-12-29T15:48:03;99943.88;;;9.78;67.19
36248;BME280;22287;50.824;5.644;2022-12-29T15:50:34;99943.63;;;9.72;68.01
36248;BME280;22287;50.824;5.644;2022-12-29T15:53:10;99945.00;;;9.85;67.17
36248;BME280;22287;50.824;5.644;2022-12-29T15:55:40;99945.56;;;9.89;67.49
36248;BME280;22287;50.824;5.644;2022-12-29T15:58:23;99943.63;;;9.53;68.09
36248;BME280;22287;50.824;5.644;2022-12-29T16:01:00;99936.72;;;10.16;66.66
36248;BME280;22287;50.824;5.644;2022-12-29T16:03:31;99946.88;;;9.66;68.28